Main page
METAR-TAF:

METAR-TAF

Airports :

Aviano Air Base

Aviano, Italy

latitude: 46-02N, longitude: 012-36E, elevation: 128 m

Current weather observation

The report was made 10 hours and 59 minutes ago, at 20:55 UTC
Wind 4 kt from the North
Temperature 0°C
Humidity 80%
Pressure 1015 hPa
Visibility 10 km or more
Scattered clouds at a height of 10000 ft

METAR: LIPA 192055Z 01004KT 9999 SCT100 00/M03 Q1015 RMK SCT VIS MIN 9999 WIND THR05 04003KT WIND THR23 10003KT A2999 BLU

Time: 08:54 (07:54 UTC)

Forecast

The report was made 11 hours and 54 minutes ago, at 20:00 UTC
Forecast valid from 19 at 21 UTC to 20 at 06 UTC
Wind 3 kt from variable directions
Visibility 10 km or more
Scattered clouds at a height of 10000 ft

TAF: LIPA 192000Z 1921/2006 VRB03KT 9999 SCT100

Weather observations and forecasts of more than 4000 airports (METAR and TAF reports).

The available stations are represented by yellow and red dots on the map.

Hover mouse over dot to see the name of the station.

Then click to see weather observations and forecasts.

To change the map : click on the green buttons with a black cross to zoom in, on the green button with a dash to zoom out, or on the green arrows for adjacent maps.


METAR-TAF: